sensor_id;sensor_type;location;lat;lon;timestamp;P1;durP1;ratioP1;P2;durP2;ratioP2
22476;SDS011;65006;51.698;-0.292;2023-02-13T00:02:54;24.98;;;10.10;;
22476;SDS011;65006;51.698;-0.292;2023-02-13T00:05:20;26.67;;;11.27;;
22476;SDS011;65006;51.698;-0.292;2023-02-13T00:07:46;26.67;;;11.40;;
22476;SDS011;65006;51.698;-0.292;2023-02-13T00:10:12;19.52;;;10.07;;
22476;SDS011;65006;51.698;-0.292;2023-02-13T00:12:38;28.23;;;11.15;;
22476;SDS011;65006;51.698;-0.292;2023-02-13T00:15:05;24.90;;;10.35;;
22476;SDS011;65006;51.698;-0.292;2023-02-13T00:19:57;21.38;;;10.05;;
22476;SDS011;65006;51.698;-0.292;2023-02-13T00:22:23;25.42;;;10.25;;
22476;SDS011;65006;51.698;-0.292;2023-02-13T00:24:49;25.33;;;9.82;;
22476;SDS011;65006;51.698;-0.292;2023-02-13T00:27:15;28.83;;;11.25;;
22476;SDS011;65006;51.698;-0.292;2023-02-13T00:29:41;38.60;;;11.27;;
22476;SDS011;65006;51.698;-0.292;2023-02-13T00:32:07;31.80;;;11.68;;
22476;SDS011;65006;51.698;-0.292;2023-02-13T00:34:33;32.85;;;12.45;;
22476;SDS011;65006;51.698;-0.292;2023-02-13T00:39:26;32.45;;;12.88;;
22476;SDS011;65006;51.698;-0.292;2023-02-13T00:41:54;36.55;;;14.10;;
22476;SDS011;65006;51.698;-0.292;2023-02-13T00:44:20;38.22;;;14.07;;
22476;SDS011;65006;51.698;-0.292;2023-02-13T00:46:46;44.80;;;15.65;;
22476;SDS011;65006;51.698;-0.292;2023-02-13T00:49:13;35.30;;;13.80;;
22476;SDS011;65006;51.698;-0.292;2023-02-13T00:51:39;48.40;;;15.75;;
22476;SDS011;65006;51.698;-0.292;2023-02-13T00:54:05;42.33;;;16.20;;
22476;SDS011;65006;51.698;-0.292;2023-02-13T00:56:32;38.33;;;13.73;;
22476;SDS011;65006;51.698;-0.292;2023-02-13T00:58:58;41.67;;;16.05;;
22476;SDS011;65006;51.698;-0.292;2023-02-13T01:01:24;41.78;;;15.50;;
22476;SDS011;65006;51.698;-0.292;2023-02-13T01:03:50;43.20;;;15.48;;
22476;SDS011;65006;51.698;-0.292;2023-02-13T01:06:16;43.83;;;16.05;;
22476;SDS011;65006;51.698;-0.292;2023-02-13T01:08:42;42.97;;;14.85;;
22476;SDS011;65006;51.698;-0.292;2023-02-13T01:11:08;38.90;;;14.02;;
22476;SDS011;65006;51.698;-0.292;2023-02-13T01:13:34;44.75;;;14.25;;
22476;SDS011;65006;51.698;-0.292;2023-02-13T01:16:01;43.30;;;15.68;;
22476;SDS011;65006;51.698;-0.292;2023-02-13T01:18:27;47.95;;;17.02;;
22476;SDS011;65006;51.698;-0.292;2023-02-13T01:20:55;48.08;;;15.43;;
22476;SDS011;65006;51.698;-0.292;2023-02-13T01:23:21;44.53;;;15.75;;
22476;SDS011;65006;51.698;-0.292;2023-02-13T01:25:47;41.70;;;15.68;;
22476;SDS011;65006;51.698;-0.292;2023-02-13T01:28:15;42.08;;;14.55;;
22476;SDS011;65006;51.698;-0.292;2023-02-13T01:30:41;46.08;;;14.25;;
22476;SDS011;65006;51.698;-0.292;2023-02-13T01:33:09;43.17;;;15.65;;
22476;SDS011;65006;51.698;-0.292;2023-02-13T01:35:37;47.38;;;15.52;;
22476;SDS011;65006;51.698;-0.292;2023-02-13T01:38:05;49.40;;;15.93;;
22476;SDS011;65006;51.698;-0.292;2023-02-13T01:40:32;45.97;;;15.55;;
22476;SDS011;65006;51.698;-0.292;2023-02-13T01:42:58;39.95;;;15.38;;
22476;SDS011;65006;51.698;-0.292;2023-02-13T01:45:26;39.72;;;15.15;;
22476;SDS011;65006;51.698;-0.292;2023-02-13T01:47:55;46.88;;;15.80;;
22476;SDS011;65006;51.698;-0.292;2023-02-13T01:50:31;42.83;;;15.10;;
22476;SDS011;65006;51.698;-0.292;2023-02-13T01:53:00;44.55;;;15.20;;
22476;SDS011;65006;51.698;-0.292;2023-02-13T01:55:28;45.47;;;16.55;;
22476;SDS011;65006;51.698;-0.292;2023-02-13T01:58:06;45.28;;;17.25;;
22476;SDS011;65006;51.698;-0.292;2023-02-13T02:00:34;39.38;;;15.80;;
22476;SDS011;65006;51.698;-0.292;2023-02-13T02:03:04;46.15;;;15.55;;
22476;SDS011;65006;51.698;-0.292;2023-02-13T02:05:31;42.75;;;16.88;;
22476;SDS011;65006;51.698;-0.292;2023-02-13T02:07:58;45.85;;;17.42;;
22476;SDS011;65006;51.698;-0.292;2023-02-13T02:13:06;46.83;;;17.77;;
22476;SDS011;65006;51.698;-0.292;2023-02-13T02:15:33;52.55;;;17.27;;
22476;SDS011;65006;51.698;-0.292;2023-02-13T02:18:00;43.38;;;16.55;;
22476;SDS011;65006;51.698;-0.292;2023-02-13T02:33:40;45.38;;;16.83;;
22476;SDS011;65006;51.698;-0.292;2023-02-13T02:46:36;48.92;;;17.70;;
22476;SDS011;65006;51.698;-0.292;2023-02-13T02:49:24;44.85;;;18.80;;
22476;SDS011;65006;51.698;-0.292;2023-02-13T02:52:17;51.08;;;18.83;;
22476;SDS011;65006;51.698;-0.292;2023-02-13T02:54:45;44.45;;;17.73;;
22476;SDS011;65006;51.698;-0.292;2023-02-13T02:57:33;42.20;;;16.48;;
22476;SDS011;65006;51.698;-0.292;2023-02-13T03:03:04;49.70;;;19.15;;
22476;SDS011;65006;51.698;-0.292;2023-02-13T03:05:53;39.95;;;16.55;;
22476;SDS011;65006;51.698;-0.292;2023-02-13T03:08:35;44.55;;;18.20;;
22476;SDS011;65006;51.698;-0.292;2023-02-13T03:11:20;50.72;;;17.73;;
22476;SDS011;65006;51.698;-0.292;2023-02-13T03:14:06;45.20;;;17.90;;
22476;SDS011;65006;51.698;-0.292;2023-02-13T03:16:34;43.03;;;16.42;;
22476;SDS011;65006;51.698;-0.292;2023-02-13T03:22:23;45.72;;;18.08;;
22476;SDS011;65006;51.698;-0.292;2023-02-13T03:38:50;44.30;;;17.42;;
22476;SDS011;65006;51.698;-0.292;2023-02-13T03:41:23;43.50;;;17.08;;
22476;SDS011;65006;51.698;-0.292;2023-02-13T03:46:16;39.90;;;16.63;;
22476;SDS011;65006;51.698;-0.292;2023-02-13T03:48:43;42.78;;;17.23;;
22476;SDS011;65006;51.698;-0.292;2023-02-13T03:51:37;45.55;;;16.75;;
22476;SDS011;65006;51.698;-0.292;2023-02-13T03:54:05;39.53;;;15.50;;
22476;SDS011;65006;51.698;-0.292;2023-02-13T03:56:32;39.33;;;16.45;;
22476;SDS011;65006;51.698;-0.292;2023-02-13T03:59:20;37.53;;;15.57;;
22476;SDS011;65006;51.698;-0.292;2023-02-13T04:01:53;37.47;;;15.88;;
22476;SDS011;65006;51.698;-0.292;2023-02-13T04:04:26;35.13;;;14.02;;
22476;SDS011;65006;51.698;-0.292;2023-02-13T04:06:58;31.35;;;13.05;;
22476;SDS011;65006;51.698;-0.292;2023-02-13T04:09:26;34.22;;;12.70;;
22476;SDS011;65006;51.698;-0.292;2023-02-13T04:12:27;32.97;;;13.75;;
22476;SDS011;65006;51.698;-0.292;2023-02-13T04:17:13;30.30;;;11.98;;
22476;SDS011;65006;51.698;-0.292;2023-02-13T04:19:40;31.13;;;12.82;;
22476;SDS011;65006;51.698;-0.292;2023-02-13T04:22:07;28.05;;;12.13;;
22476;SDS011;65006;51.698;-0.292;2023-02-13T04:24:33;30.70;;;12.73;;
22476;SDS011;65006;51.698;-0.292;2023-02-13T04:26:59;31.58;;;12.43;;
22476;SDS011;65006;51.698;-0.292;2023-02-13T04:29:25;24.70;;;10.88;;
22476;SDS011;65006;51.698;-0.292;2023-02-13T04:31:51;25.02;;;11.05;;
22476;SDS011;65006;51.698;-0.292;2023-02-13T04:34:18;32.53;;;12.82;;
22476;SDS011;65006;51.698;-0.292;2023-02-13T04:36:44;24.80;;;10.85;;
22476;SDS011;65006;51.698;-0.292;2023-02-13T04:39:10;33.58;;;11.73;;
22476;SDS011;65006;51.698;-0.292;2023-02-13T04:41:37;30.08;;;12.55;;
22476;SDS011;65006;51.698;-0.292;2023-02-13T04:44:05;25.00;;;11.23;;
22476;SDS011;65006;51.698;-0.292;2023-02-13T04:46:31;24.98;;;11.32;;
22476;SDS011;65006;51.698;-0.292;2023-02-13T04:49:04;26.42;;;11.82;;
22476;SDS011;65006;51.698;-0.292;2023-02-13T04:51:30;25.52;;;11.98;;
22476;SDS011;65006;51.698;-0.292;2023-02-13T04:53:56;31.15;;;11.93;;
22476;SDS011;65006;51.698;-0.292;2023-02-13T04:56:22;28.30;;;12.50;;
22476;SDS011;65006;51.698;-0.292;2023-02-13T04:58:48;27.23;;;11.82;;
22476;SDS011;65006;51.698;-0.292;2023-02-13T05:01:15;26.80;;;11.88;;
22476;SDS011;65006;51.698;-0.292;2023-02-13T05:03:41;26.60;;;11.30;;
22476;SDS011;65006;51.698;-0.292;2023-02-13T05:06:07;30.90;;;12.13;;
22476;SDS011;65006;51.698;-0.292;2023-02-13T05:08:34;29.52;;;11.80;;
22476;SDS011;65006;51.698;-0.292;2023-02-13T05:11:00;30.20;;;12.43;;
22476;SDS011;65006;51.698;-0.292;2023-02-13T05:13:26;28.88;;;11.85;;
22476;SDS011;65006;51.698;-0.292;2023-02-13T05:15:52;30.65;;;11.30;;
22476;SDS011;65006;51.698;-0.292;2023-02-13T05:18:18;22.35;;;11.30;;
22476;SDS011;65006;51.698;-0.292;2023-02-13T05:20:44;28.75;;;11.82;;
22476;SDS011;65006;51.698;-0.292;2023-02-13T05:23:30;24.85;;;11.68;;
22476;SDS011;65006;51.698;-0.292;2023-02-13T05:25:56;28.60;;;11.80;;
22476;SDS011;65006;51.698;-0.292;2023-02-13T05:28:23;28.60;;;12.48;;
22476;SDS011;65006;51.698;-0.292;2023-02-13T05:31:10;32.72;;;13.00;;
22476;SDS011;65006;51.698;-0.292;2023-02-13T05:33:38;25.45;;;11.57;;
22476;SDS011;65006;51.698;-0.292;2023-02-13T05:36:04;26.45;;;11.32;;
22476;SDS011;65006;51.698;-0.292;2023-02-13T05:38:30;28.80;;;12.15;;
22476;SDS011;65006;51.698;-0.292;2023-02-13T05:40:59;28.63;;;11.98;;
22476;SDS011;65006;51.698;-0.292;2023-02-13T05:43:26;32.67;;;12.80;;
22476;SDS011;65006;51.698;-0.292;2023-02-13T05:48:18;33.78;;;14.25;;
22476;SDS011;65006;51.698;-0.292;2023-02-13T05:50:45;38.33;;;14.00;;
22476;SDS011;65006;51.698;-0.292;2023-02-13T05:53:11;32.78;;;13.93;;
22476;SDS011;65006;51.698;-0.292;2023-02-13T05:55:38;30.98;;;14.18;;
22476;SDS011;65006;51.698;-0.292;2023-02-13T05:58:04;31.92;;;14.05;;
22476;SDS011;65006;51.698;-0.292;2023-02-13T06:00:30;32.20;;;13.57;;
22476;SDS011;65006;51.698;-0.292;2023-02-13T06:02:56;33.30;;;14.20;;
22476;SDS011;65006;51.698;-0.292;2023-02-13T06:05:22;30.98;;;14.02;;
22476;SDS011;65006;51.698;-0.292;2023-02-13T06:07:48;35.67;;;13.77;;
22476;SDS011;65006;51.698;-0.292;2023-02-13T06:10:14;35.70;;;14.88;;
22476;SDS011;65006;51.698;-0.292;2023-02-13T06:12:41;37.83;;;14.63;;
22476;SDS011;65006;51.698;-0.292;2023-02-13T06:15:07;37.60;;;16.40;;
22476;SDS011;65006;51.698;-0.292;2023-02-13T06:17:33;39.08;;;15.35;;
22476;SDS011;65006;51.698;-0.292;2023-02-13T06:19:59;38.60;;;16.08;;
22476;SDS011;65006;51.698;-0.292;2023-02-13T06:22:25;41.05;;;16.55;;
22476;SDS011;65006;51.698;-0.292;2023-02-13T06:24:51;40.75;;;17.35;;
22476;SDS011;65006;51.698;-0.292;2023-02-13T06:27:17;44.63;;;17.70;;
22476;SDS011;65006;51.698;-0.292;2023-02-13T06:29:43;45.25;;;17.27;;
22476;SDS011;65006;51.698;-0.292;2023-02-13T06:32:09;41.72;;;17.13;;
22476;SDS011;65006;51.698;-0.292;2023-02-13T06:34:35;41.33;;;17.73;;
22476;SDS011;65006;51.698;-0.292;2023-02-13T06:37:01;39.70;;;17.42;;
22476;SDS011;65006;51.698;-0.292;2023-02-13T06:39:27;41.20;;;18.92;;
22476;SDS011;65006;51.698;-0.292;2023-02-13T06:41:53;41.22;;;17.15;;
22476;SDS011;65006;51.698;-0.292;2023-02-13T06:44:19;38.53;;;16.52;;
22476;SDS011;65006;51.698;-0.292;2023-02-13T06:46:45;38.45;;;16.33;;
22476;SDS011;65006;51.698;-0.292;2023-02-13T06:49:11;43.38;;;15.80;;
22476;SDS011;65006;51.698;-0.292;2023-02-13T06:51:37;37.85;;;16.17;;
22476;SDS011;65006;51.698;-0.292;2023-02-13T06:54:04;40.60;;;15.52;;
22476;SDS011;65006;51.698;-0.292;2023-02-13T06:56:31;35.00;;;14.60;;
22476;SDS011;65006;51.698;-0.292;2023-02-13T06:58:58;39.20;;;15.75;;
22476;SDS011;65006;51.698;-0.292;2023-02-13T07:01:25;33.83;;;14.50;;
22476;SDS011;65006;51.698;-0.292;2023-02-13T07:03:51;37.22;;;15.70;;
22476;SDS011;65006;51.698;-0.292;2023-02-13T07:06:18;36.10;;;15.00;;
22476;SDS011;65006;51.698;-0.292;2023-02-13T07:08:44;35.22;;;14.77;;
22476;SDS011;65006;51.698;-0.292;2023-02-13T07:11:18;35.65;;;15.30;;
22476;SDS011;65006;51.698;-0.292;2023-02-13T07:13:44;39.72;;;16.33;;
22476;SDS011;65006;51.698;-0.292;2023-02-13T07:16:10;32.90;;;14.35;;
22476;SDS011;65006;51.698;-0.292;2023-02-13T07:18:36;37.35;;;16.40;;
22476;SDS011;65006;51.698;-0.292;2023-02-13T07:21:04;40.17;;;16.52;;
22476;SDS011;65006;51.698;-0.292;2023-02-13T07:23:30;39.80;;;16.52;;
22476;SDS011;65006;51.698;-0.292;2023-02-13T07:25:59;37.58;;;16.67;;
22476;SDS011;65006;51.698;-0.292;2023-02-13T07:28:26;44.22;;;16.52;;
22476;SDS011;65006;51.698;-0.292;2023-02-13T07:30:52;44.38;;;16.90;;
22476;SDS011;65006;51.698;-0.292;2023-02-13T07:33:18;50.00;;;17.13;;
22476;SDS011;65006;51.698;-0.292;2023-02-13T07:35:46;43.70;;;17.48;;
22476;SDS011;65006;51.698;-0.292;2023-02-13T07:40:38;39.17;;;16.80;;
22476;SDS011;65006;51.698;-0.292;2023-02-13T07:43:04;41.88;;;17.38;;
22476;SDS011;65006;51.698;-0.292;2023-02-13T07:45:32;42.60;;;16.95;;
22476;SDS011;65006;51.698;-0.292;2023-02-13T07:47:58;41.10;;;17.35;;
22476;SDS011;65006;51.698;-0.292;2023-02-13T07:50:24;42.67;;;18.50;;
22476;SDS011;65006;51.698;-0.292;2023-02-13T07:55:18;43.05;;;18.58;;
22476;SDS011;65006;51.698;-0.292;2023-02-13T07:57:44;46.33;;;17.88;;
22476;SDS011;65006;51.698;-0.292;2023-02-13T08:00:10;47.80;;;18.75;;
22476;SDS011;65006;51.698;-0.292;2023-02-13T08:02:36;54.10;;;19.52;;
22476;SDS011;65006;51.698;-0.292;2023-02-13T08:05:02;48.47;;;17.92;;
22476;SDS011;65006;51.698;-0.292;2023-02-13T08:07:28;47.25;;;17.33;;
22476;SDS011;65006;51.698;-0.292;2023-02-13T08:09:55;44.17;;;18.35;;
22476;SDS011;65006;51.698;-0.292;2023-02-13T08:12:40;48.35;;;19.38;;
22476;SDS011;65006;51.698;-0.292;2023-02-13T08:15:06;52.95;;;19.77;;
22476;SDS011;65006;51.698;-0.292;2023-02-13T08:17:32;48.95;;;19.73;;
22476;SDS011;65006;51.698;-0.292;2023-02-13T08:19:58;54.45;;;20.08;;
22476;SDS011;65006;51.698;-0.292;2023-02-13T08:22:24;61.20;;;21.65;;
22476;SDS011;65006;51.698;-0.292;2023-02-13T08:24:50;47.65;;;20.25;;
22476;SDS011;65006;51.698;-0.292;2023-02-13T08:27:17;54.63;;;20.08;;
22476;SDS011;65006;51.698;-0.292;2023-02-13T08:29:43;47.55;;;20.23;;
22476;SDS011;65006;51.698;-0.292;2023-02-13T08:32:09;47.88;;;19.77;;
22476;SDS011;65006;51.698;-0.292;2023-02-13T08:34:35;47.00;;;19.17;;
22476;SDS011;65006;51.698;-0.292;2023-02-13T08:37:02;48.58;;;19.52;;
22476;SDS011;65006;51.698;-0.292;2023-02-13T08:39:28;48.20;;;19.20;;
22476;SDS011;65006;51.698;-0.292;2023-02-13T08:41:54;52.42;;;20.45;;
22476;SDS011;65006;51.698;-0.292;2023-02-13T08:44:20;52.72;;;20.48;;
22476;SDS011;65006;51.698;-0.292;2023-02-13T08:46:46;48.88;;;19.33;;
22476;SDS011;65006;51.698;-0.292;2023-02-13T08:49:13;51.00;;;17.98;;
22476;SDS011;65006;51.698;-0.292;2023-02-13T08:51:39;46.17;;;18.52;;
22476;SDS011;65006;51.698;-0.292;2023-02-13T08:54:05;45.28;;;17.90;;
22476;SDS011;65006;51.698;-0.292;2023-02-13T08:56:31;44.13;;;17.60;;
22476;SDS011;65006;51.698;-0.292;2023-02-13T08:59:00;49.20;;;18.83;;
22476;SDS011;65006;51.698;-0.292;2023-02-13T09:01:27;43.15;;;18.25;;
22476;SDS011;65006;51.698;-0.292;2023-02-13T09:03:53;40.00;;;16.73;;
22476;SDS011;65006;51.698;-0.292;2023-02-13T09:06:20;41.88;;;18.30;;
22476;SDS011;65006;51.698;-0.292;2023-02-13T09:08:47;41.47;;;17.15;;
22476;SDS011;65006;51.698;-0.292;2023-02-13T09:11:14;38.40;;;15.48;;
22476;SDS011;65006;51.698;-0.292;2023-02-13T09:13:42;42.70;;;16.50;;
22476;SDS011;65006;51.698;-0.292;2023-02-13T09:16:09;39.08;;;15.25;;
22476;SDS011;65006;51.698;-0.292;2023-02-13T09:18:35;35.90;;;15.75;;
22476;SDS011;65006;51.698;-0.292;2023-02-13T09:21:03;38.88;;;15.48;;
22476;SDS011;65006;51.698;-0.292;2023-02-13T09:23:33;38.13;;;15.05;;
22476;SDS011;65006;51.698;-0.292;2023-02-13T09:26:02;31.13;;;13.48;;
22476;SDS011;65006;51.698;-0.292;2023-02-13T09:28:29;29.75;;;13.48;;
22476;SDS011;65006;51.698;-0.292;2023-02-13T09:30:55;34.15;;;14.68;;
22476;SDS011;65006;51.698;-0.292;2023-02-13T09:33:22;32.33;;;13.13;;
22476;SDS011;65006;51.698;-0.292;2023-02-13T09:38:14;32.13;;;13.88;;
22476;SDS011;65006;51.698;-0.292;2023-02-13T09:43:14;35.05;;;13.95;;
22476;SDS011;65006;51.698;-0.292;2023-02-13T09:45:42;30.73;;;13.80;;
22476;SDS011;65006;51.698;-0.292;2023-02-13T09:48:10;29.90;;;13.68;;
22476;SDS011;65006;51.698;-0.292;2023-02-13T09:50:40;30.67;;;13.30;;
22476;SDS011;65006;51.698;-0.292;2023-02-13T09:53:06;30.63;;;12.75;;
22476;SDS011;65006;51.698;-0.292;2023-02-13T09:55:41;32.55;;;13.80;;
22476;SDS011;65006;51.698;-0.292;2023-02-13T09:58:18;34.92;;;13.20;;
22476;SDS011;65006;51.698;-0.292;2023-02-13T10:00:47;30.80;;;12.65;;
22476;SDS011;65006;51.698;-0.292;2023-02-13T10:03:17;35.28;;;13.35;;
22476;SDS011;65006;51.698;-0.292;2023-02-13T10:10:51;30.98;;;13.50;;
22476;SDS011;65006;51.698;-0.292;2023-02-13T10:13:30;31.80;;;12.65;;
22476;SDS011;65006;51.698;-0.292;2023-02-13T10:18:33;29.15;;;12.55;;
22476;SDS011;65006;51.698;-0.292;2023-02-13T10:21:02;28.42;;;13.32;;
22476;SDS011;65006;51.698;-0.292;2023-02-13T10:23:47;28.83;;;12.63;;
22476;SDS011;65006;51.698;-0.292;2023-02-13T10:26:28;31.40;;;13.52;;
22476;SDS011;65006;51.698;-0.292;2023-02-13T10:32:11;31.27;;;13.88;;
22476;SDS011;65006;51.698;-0.292;2023-02-13T10:34:45;39.45;;;14.00;;
22476;SDS011;65006;51.698;-0.292;2023-02-13T10:37:13;30.48;;;13.40;;
22476;SDS011;65006;51.698;-0.292;2023-02-13T10:39:40;27.92;;;13.38;;
22476;SDS011;65006;51.698;-0.292;2023-02-13T10:42:19;30.67;;;13.00;;
22476;SDS011;65006;51.698;-0.292;2023-02-13T10:52:48;30.02;;;13.02;;
22476;SDS011;65006;51.698;-0.292;2023-02-13T10:55:22;35.95;;;13.35;;
22476;SDS011;65006;51.698;-0.292;2023-02-13T10:57:58;31.45;;;12.55;;
22476;SDS011;65006;51.698;-0.292;2023-02-13T11:00:33;31.15;;;12.98;;
22476;SDS011;65006;51.698;-0.292;2023-02-13T11:02:59;26.33;;;11.32;;
22476;SDS011;65006;51.698;-0.292;2023-02-13T11:05:30;24.17;;;11.00;;
22476;SDS011;65006;51.698;-0.292;2023-02-13T11:07:56;28.25;;;11.68;;
22476;SDS011;65006;51.698;-0.292;2023-02-13T11:10:25;31.60;;;12.65;;
22476;SDS011;65006;51.698;-0.292;2023-02-13T11:12:52;26.90;;;12.15;;
22476;SDS011;65006;51.698;-0.292;2023-02-13T11:15:28;24.98;;;12.25;;
22476;SDS011;65006;51.698;-0.292;2023-02-13T11:18:10;22.67;;;11.50;;
22476;SDS011;65006;51.698;-0.292;2023-02-13T11:20:38;25.35;;;11.23;;
22476;SDS011;65006;51.698;-0.292;2023-02-13T11:28:23;23.63;;;10.82;;
22476;SDS011;65006;51.698;-0.292;2023-02-13T11:30:51;25.40;;;10.93;;
22476;SDS011;65006;51.698;-0.292;2023-02-13T11:33:26;21.80;;;9.98;;
22476;SDS011;65006;51.698;-0.292;2023-02-13T11:36:34;23.63;;;10.02;;
22476;SDS011;65006;51.698;-0.292;2023-02-13T11:38:42;23.83;;;10.27;;
22476;SDS011;65006;51.698;-0.292;2023-02-13T11:41:09;23.95;;;10.57;;
22476;SDS011;65006;51.698;-0.292;2023-02-13T11:43:49;21.10;;;9.63;;
22476;SDS011;65006;51.698;-0.292;2023-02-13T11:46:19;28.92;;;10.15;;
22476;SDS011;65006;51.698;-0.292;2023-02-13T11:48:59;23.67;;;10.00;;
22476;SDS011;65006;51.698;-0.292;2023-02-13T11:54:02;24.70;;;10.43;;
22476;SDS011;65006;51.698;-0.292;2023-02-13T11:56:35;21.85;;;10.27;;
22476;SDS011;65006;51.698;-0.292;2023-02-13T11:59:11;21.40;;;10.10;;
22476;SDS011;65006;51.698;-0.292;2023-02-13T12:01:37;23.83;;;9.88;;
22476;SDS011;65006;51.698;-0.292;2023-02-13T12:09:40;21.65;;;9.82;;
22476;SDS011;65006;51.698;-0.292;2023-02-13T12:12:08;22.08;;;9.55;;
22476;SDS011;65006;51.698;-0.292;2023-02-13T12:14:37;20.88;;;9.77;;
22476;SDS011;65006;51.698;-0.292;2023-02-13T12:17:06;20.75;;;9.02;;
22476;SDS011;65006;51.698;-0.292;2023-02-13T12:19:40;26.45;;;9.75;;
22476;SDS011;65006;51.698;-0.292;2023-02-13T12:35:43;21.90;;;10.38;;
22476;SDS011;65006;51.698;-0.292;2023-02-13T12:46:01;24.63;;;10.10;;
22476;SDS011;65006;51.698;-0.292;2023-02-13T12:56:26;26.73;;;12.00;;
22476;SDS011;65006;51.698;-0.292;2023-02-13T12:59:02;24.73;;;10.82;;
22476;SDS011;65006;51.698;-0.292;2023-02-13T13:04:07;23.08;;;10.38;;
22476;SDS011;65006;51.698;-0.292;2023-02-13T13:22:35;20.40;;;9.63;;
22476;SDS011;65006;51.698;-0.292;2023-02-13T13:27:43;20.95;;;9.98;;
22476;SDS011;65006;51.698;-0.292;2023-02-13T13:30:29;20.50;;;9.68;;
22476;SDS011;65006;51.698;-0.292;2023-02-13T13:33:19;21.25;;;9.00;;
22476;SDS011;65006;51.698;-0.292;2023-02-13T13:35:57;21.00;;;10.38;;
22476;SDS011;65006;51.698;-0.292;2023-02-13T13:41:51;22.60;;;9.80;;
22476;SDS011;65006;51.698;-0.292;2023-02-13T13:59:16;20.80;;;9.25;;
22476;SDS011;65006;51.698;-0.292;2023-02-13T14:01:42;22.42;;;9.48;;
22476;SDS011;65006;51.698;-0.292;2023-02-13T14:11:53;18.20;;;8.70;;
22476;SDS011;65006;51.698;-0.292;2023-02-13T14:16:53;18.08;;;8.57;;
22476;SDS011;65006;51.698;-0.292;2023-02-13T14:19:24;18.15;;;8.77;;
22476;SDS011;65006;51.698;-0.292;2023-02-13T14:21:51;23.30;;;9.20;;
22476;SDS011;65006;51.698;-0.292;2023-02-13T14:24:21;18.95;;;9.45;;
22476;SDS011;65006;51.698;-0.292;2023-02-13T14:26:49;21.65;;;9.10;;
22476;SDS011;65006;51.698;-0.292;2023-02-13T14:29:21;22.20;;;9.25;;
22476;SDS011;65006;51.698;-0.292;2023-02-13T14:32:04;21.45;;;8.80;;
22476;SDS011;65006;51.698;-0.292;2023-02-13T14:34:36;19.52;;;8.82;;
22476;SDS011;65006;51.698;-0.292;2023-02-13T14:39:35;21.85;;;9.18;;
22476;SDS011;65006;51.698;-0.292;2023-02-13T14:42:03;18.38;;;8.90;;
22476;SDS011;65006;51.698;-0.292;2023-02-13T14:44:43;20.38;;;9.13;;
22476;SDS011;65006;51.698;-0.292;2023-02-13T14:49:49;19.35;;;8.48;;
22476;SDS011;65006;51.698;-0.292;2023-02-13T14:52:20;19.33;;;7.53;;
22476;SDS011;65006;51.698;-0.292;2023-02-13T14:54:54;21.13;;;8.48;;
22476;SDS011;65006;51.698;-0.292;2023-02-13T14:57:30;18.92;;;8.43;;
22476;SDS011;65006;51.698;-0.292;2023-02-13T15:00:00;19.38;;;8.95;;
22476;SDS011;65006;51.698;-0.292;2023-02-13T15:02:36;20.23;;;9.32;;
22476;SDS011;65006;51.698;-0.292;2023-02-13T15:05:15;19.52;;;8.80;;
22476;SDS011;65006;51.698;-0.292;2023-02-13T15:07:48;17.13;;;8.23;;
22476;SDS011;65006;51.698;-0.292;2023-02-13T15:10:27;19.10;;;8.20;;
22476;SDS011;65006;51.698;-0.292;2023-02-13T15:12:55;22.85;;;8.73;;
22476;SDS011;65006;51.698;-0.292;2023-02-13T15:15:23;16.85;;;7.80;;
22476;SDS011;65006;51.698;-0.292;2023-02-13T15:17:49;21.58;;;8.60;;
22476;SDS011;65006;51.698;-0.292;2023-02-13T15:20:22;17.77;;;8.52;;
22476;SDS011;65006;51.698;-0.292;2023-02-13T15:22:49;17.35;;;8.05;;
22476;SDS011;65006;51.698;-0.292;2023-02-13T15:25:35;15.23;;;8.57;;
22476;SDS011;65006;51.698;-0.292;2023-02-13T15:28:06;21.90;;;8.65;;
22476;SDS011;65006;51.698;-0.292;2023-02-13T15:30:34;17.95;;;8.10;;
22476;SDS011;65006;51.698;-0.292;2023-02-13T15:35:31;20.05;;;9.43;;
22476;SDS011;65006;51.698;-0.292;2023-02-13T15:37:57;17.90;;;7.82;;
22476;SDS011;65006;51.698;-0.292;2023-02-13T15:42:52;16.95;;;7.57;;
22476;SDS011;65006;51.698;-0.292;2023-02-13T15:47:46;20.40;;;9.02;;
22476;SDS011;65006;51.698;-0.292;2023-02-13T15:50:19;17.52;;;7.78;;
22476;SDS011;65006;51.698;-0.292;2023-02-13T15:52:48;25.33;;;8.80;;
22476;SDS011;65006;51.698;-0.292;2023-02-13T15:55:33;19.17;;;8.20;;
22476;SDS011;65006;51.698;-0.292;2023-02-13T15:58:01;23.73;;;9.55;;
22476;SDS011;65006;51.698;-0.292;2023-02-13T16:00:29;19.50;;;8.98;;
22476;SDS011;65006;51.698;-0.292;2023-02-13T16:02:56;17.17;;;8.07;;
22476;SDS011;65006;51.698;-0.292;2023-02-13T16:05:25;19.20;;;8.68;;
22476;SDS011;65006;51.698;-0.292;2023-02-13T16:07:59;18.23;;;8.57;;
22476;SDS011;65006;51.698;-0.292;2023-02-13T16:10:27;21.23;;;9.45;;
22476;SDS011;65006;51.698;-0.292;2023-02-13T16:12:57;19.63;;;9.45;;
22476;SDS011;65006;51.698;-0.292;2023-02-13T16:15:27;21.90;;;9.77;;
22476;SDS011;65006;51.698;-0.292;2023-02-13T16:17:54;21.17;;;9.65;;
22476;SDS011;65006;51.698;-0.292;2023-02-13T16:20:21;21.52;;;8.82;;
22476;SDS011;65006;51.698;-0.292;2023-02-13T16:22:49;18.67;;;8.60;;
22476;SDS011;65006;51.698;-0.292;2023-02-13T16:27:56;22.08;;;10.02;;
22476;SDS011;65006;51.698;-0.292;2023-02-13T16:30:40;24.63;;;9.82;;
22476;SDS011;65006;51.698;-0.292;2023-02-13T16:40:59;21.67;;;9.77;;
22476;SDS011;65006;51.698;-0.292;2023-02-13T16:46:58;20.55;;;10.15;;
22476;SDS011;65006;51.698;-0.292;2023-02-13T16:51:36;21.38;;;9.50;;
22476;SDS011;65006;51.698;-0.292;2023-02-13T16:56:50;23.23;;;9.82;;
22476;SDS011;65006;51.698;-0.292;2023-02-13T17:04:49;22.60;;;9.93;;
22476;SDS011;65006;51.698;-0.292;2023-02-13T17:09:42;21.23;;;9.50;;
22476;SDS011;65006;51.698;-0.292;2023-02-13T17:12:12;22.75;;;10.75;;
22476;SDS011;65006;51.698;-0.292;2023-02-13T17:14:39;23.23;;;10.13;;
22476;SDS011;65006;51.698;-0.292;2023-02-13T17:17:10;27.65;;;11.23;;
22476;SDS011;65006;51.698;-0.292;2023-02-13T17:19:36;25.13;;;11.38;;
22476;SDS011;65006;51.698;-0.292;2023-02-13T17:22:02;27.65;;;12.40;;
22476;SDS011;65006;51.698;-0.292;2023-02-13T17:24:28;34.92;;;15.70;;
22476;SDS011;65006;51.698;-0.292;2023-02-13T17:26:54;34.30;;;16.25;;
22476;SDS011;65006;51.698;-0.292;2023-02-13T17:29:20;37.90;;;17.83;;
22476;SDS011;65006;51.698;-0.292;2023-02-13T17:31:47;45.25;;;18.00;;
22476;SDS011;65006;51.698;-0.292;2023-02-13T17:34:15;44.60;;;18.88;;
22476;SDS011;65006;51.698;-0.292;2023-02-13T17:36:42;40.00;;;18.55;;
22476;SDS011;65006;51.698;-0.292;2023-02-13T17:39:08;39.33;;;18.50;;
22476;SDS011;65006;51.698;-0.292;2023-02-13T17:41:34;37.38;;;18.38;;
22476;SDS011;65006;51.698;-0.292;2023-02-13T17:44:03;32.05;;;16.00;;
22476;SDS011;65006;51.698;-0.292;2023-02-13T17:46:29;33.60;;;15.13;;
22476;SDS011;65006;51.698;-0.292;2023-02-13T17:48:55;32.85;;;15.48;;
22476;SDS011;65006;51.698;-0.292;2023-02-13T17:51:21;32.90;;;14.98;;
22476;SDS011;65006;51.698;-0.292;2023-02-13T17:53:47;30.45;;;14.57;;
22476;SDS011;65006;51.698;-0.292;2023-02-13T17:56:14;39.33;;;13.73;;
22476;SDS011;65006;51.698;-0.292;2023-02-13T17:58:40;31.70;;;13.80;;
22476;SDS011;65006;51.698;-0.292;2023-02-13T18:01:08;29.40;;;13.50;;
22476;SDS011;65006;51.698;-0.292;2023-02-13T18:03:34;33.63;;;13.32;;